Time;durP1;ratioP1;P1;durP2;ratioP2;P2;SDS_P1;SDS_P2;PMS_P1;PMS_P2;Temp;Humidity;BMP_temperature;BMP_pressure;BME280_temperature;BME280_humidity;BME280_pressure;Samples;Min_cycle;Max_cycle;Signal;HPM_P1;HPM_P2
2021/12/23 00:00:56;;;;;;;28.57;17.87;;;-2.90;99.90;;;;;;5135105;27;20226;-53
2021/12/23 00:03:25;;;;;;;30.17;17.87;;;-2.90;99.90;;;;;;5135106;27;20233;-54
2021/12/23 00:05:54;;;;;;;26.50;18.37;;;-2.90;99.90;;;;;;5134644;27;20205;-53
2021/12/23 00:08:22;;;;;;;29.10;18.57;;;-2.90;99.90;;;;;;5135453;27;20673;-54
2021/12/23 00:10:50;;;;;;;32.00;19.07;;;-2.90;99.90;;;;;;5134723;27;20200;-54
2021/12/23 00:13:20;;;;;;;29.83;19.10;;;-2.90;99.90;;;;;;5135072;27;20225;-54
2021/12/23 00:16:03;;;;;;;31.27;19.03;;;-2.90;99.90;;;;;;5135025;27;20668;-55
2021/12/23 00:18:45;;;;;;;32.97;20.90;;;-2.90;99.90;;;;;;5133262;27;20204;-53
2021/12/23 00:24:01;;;;;;;30.00;18.80;;;-2.80;99.90;;;;;;5134968;27;20222;-54
2021/12/23 00:26:30;;;;;;;33.00;19.17;;;-2.80;99.90;;;;;;5134873;27;20256;-53
2021/12/23 00:28:59;;;;;;;26.80;17.47;;;-2.70;99.90;;;;;;5113907;28;20228;-54
2021/12/23 00:31:27;;;;;;;25.33;17.23;;;-2.70;99.90;;;;;;5117899;27;20279;-53
2021/12/23 00:33:56;;;;;;;27.40;18.03;;;-2.70;99.90;;;;;;5134050;27;20225;-54
2021/12/23 00:36:25;;;;;;;30.13;19.77;;;-2.70;99.90;;;;;;5134726;27;20449;-53
2021/12/23 00:38:55;;;;;;;29.27;20.37;;;-2.70;99.90;;;;;;5134501;27;20202;-53
2021/12/23 00:41:30;;;;;;;34.33;22.13;;;-2.60;99.90;;;;;;5133674;27;20241;-54
2021/12/23 00:44:00;;;;;;;29.97;19.03;;;-2.60;99.90;;;;;;5133717;27;20217;-54
2021/12/23 00:46:28;;;;;;;33.53;20.47;;;-2.60;99.90;;;;;;5134142;27;20206;-53
2021/12/23 00:48:56;;;;;;;29.47;19.30;;;-2.50;99.90;;;;;;5134706;27;20226;-53
2021/12/23 00:51:24;;;;;;;32.20;19.73;;;-2.50;99.90;;;;;;5133515;27;20250;-54
2021/12/23 00:53:54;;;;;;;32.43;21.10;;;-2.50;99.90;;;;;;5134544;27;20304;-54
2021/12/23 00:56:22;;;;;;;32.77;21.07;;;-2.50;99.90;;;;;;5133929;27;20214;-54
2021/12/23 00:58:50;;;;;;;34.23;21.20;;;-2.60;99.90;;;;;;5131390;27;20618;-54
2021/12/23 01:01:19;;;;;;;33.30;20.63;;;-2.60;99.90;;;;;;5113630;28;20206;-53
2021/12/23 01:03:48;;;;;;;30.13;19.33;;;-2.50;99.90;;;;;;5112940;28;20582;-54
2021/12/23 01:06:16;;;;;;;34.90;21.33;;;-2.50;99.90;;;;;;5115544;27;20208;-55
2021/12/23 01:08:44;;;;;;;33.87;21.17;;;-2.50;99.90;;;;;;5133735;27;20228;-54
2021/12/23 01:11:12;;;;;;;31.20;19.70;;;-2.50;99.90;;;;;;5134191;27;20234;-54
2021/12/23 01:13:47;;;;;;;31.53;19.63;;;-2.40;99.90;;;;;;5133879;27;20268;-55
2021/12/23 01:16:36;;;;;;;32.63;20.63;;;-2.40;99.90;;;;;;5133453;27;20208;-53
2021/12/23 01:19:11;;;;;;;32.30;20.90;;;-2.40;99.90;;;;;;5134330;27;20603;-55
2021/12/23 01:21:39;;;;;;;32.07;19.50;;;-2.30;99.90;;;;;;5133618;27;20254;-54
2021/12/23 01:24:09;;;;;;;35.23;21.67;;;-2.30;99.90;;;;;;5133902;27;20225;-53
2021/12/23 01:26:38;;;;;;;32.13;20.67;;;-2.30;99.90;;;;;;5133045;27;20255;-54
2021/12/23 01:29:07;;;;;;;32.07;20.27;;;-2.30;99.90;;;;;;5133596;27;20773;-54
2021/12/23 01:31:38;;;;;;;29.50;19.37;;;-2.30;99.90;;;;;;5134235;27;20233;-54
2021/12/23 01:34:08;;;;;;;29.50;20.30;;;-2.30;99.90;;;;;;5133459;27;20713;-53
2021/12/23 01:36:36;;;;;;;31.30;20.30;;;-2.30;99.90;;;;;;5133533;27;20260;-53
2021/12/23 01:39:04;;;;;;;32.33;21.33;;;-2.30;99.90;;;;;;5132962;27;20205;-54
2021/12/23 01:41:33;;;;;;;30.43;20.67;;;-2.30;99.90;;;;;;5128137;27;20203;-53
2021/12/23 01:44:01;;;;;;;34.47;20.23;;;-2.30;99.90;;;;;;5118582;27;20217;-54
2021/12/23 01:46:29;;;;;;;31.37;20.90;;;-2.30;99.90;;;;;;5133347;27;20257;-54
2021/12/23 01:48:58;;;;;;;31.20;20.00;;;-2.30;99.90;;;;;;5133017;27;20734;-54
2021/12/23 01:51:27;;;;;;;32.07;21.73;;;-2.30;99.90;;;;;;5132902;27;20206;-54
2021/12/23 01:53:55;;;;;;;35.63;22.67;;;-2.20;99.90;;;;;;5148948;27;20237;-55
2021/12/23 01:56:26;;;;;;;32.63;22.87;;;-2.20;99.90;;;;;;5143520;27;20682;-53
2021/12/23 01:58:54;;;;;;;34.13;22.60;;;-2.20;99.90;;;;;;5130117;27;20188;-54
2021/12/23 02:01:22;;;;;;;35.73;23.80;;;-2.10;99.90;;;;;;5112580;28;20283;-55
2021/12/23 02:03:51;;;;;;;32.60;22.17;;;-2.10;99.90;;;;;;5125314;27;20306;-54
2021/12/23 02:06:19;;;;;;;33.90;22.43;;;-2.10;99.90;;;;;;5132680;27;20263;-53
2021/12/23 02:08:48;;;;;;;35.00;22.97;;;-2.00;99.90;;;;;;5133245;27;20582;-54
2021/12/23 02:11:16;;;;;;;34.63;23.43;;;-2.00;99.90;;;;;;5138672;27;20250;-54
2021/12/23 02:13:45;;;;;;;33.60;22.90;;;-2.00;99.90;;;;;;5153626;27;20218;-54
2021/12/23 02:16:13;;;;;;;34.83;22.73;;;-2.00;99.90;;;;;;5153567;27;20228;-53
2021/12/23 02:18:41;;;;;;;37.73;23.97;;;-2.00;99.90;;;;;;5153603;27;20205;-54
2021/12/23 02:21:11;;;;;;;37.43;23.27;;;-2.00;99.90;;;;;;5152919;27;20618;-54
2021/12/23 02:23:40;;;;;;;38.13;24.00;;;-2.00;99.90;;;;;;5153010;27;20713;-54
2021/12/23 02:26:08;;;;;;;38.80;24.53;;;-2.00;99.90;;;;;;5153028;27;20688;-55
2021/12/23 02:28:36;;;;;;;36.30;23.90;;;-2.00;99.90;;;;;;5135394;27;20205;-54
2021/12/23 02:31:04;;;;;;;37.33;23.10;;;-2.00;99.90;;;;;;5132299;27;20252;-55
2021/12/23 02:33:34;;;;;;;36.30;22.83;;;-2.00;99.90;;;;;;5132401;27;20597;-53
2021/12/23 02:36:03;;;;;;;35.03;22.67;;;-2.00;99.90;;;;;;5131846;27;20674;-54
2021/12/23 02:38:32;;;;;;;36.73;23.77;;;-2.00;99.90;;;;;;5114999;27;20214;-54
2021/12/23 02:41:01;;;;;;;36.70;24.30;;;-2.00;99.90;;;;;;5111254;28;20264;-54
2021/12/23 02:43:30;;;;;;;35.67;23.50;;;-2.00;99.90;;;;;;5113411;27;20649;-55
2021/12/23 02:46:00;;;;;;;37.90;24.20;;;-2.00;99.90;;;;;;5132436;27;20214;-54
2021/12/23 02:48:30;;;;;;;32.47;21.93;;;-2.00;99.90;;;;;;5132070;27;20633;-54
2021/12/23 02:51:00;;;;;;;43.17;24.03;;;-2.00;99.90;;;;;;5131815;27;20227;-53
2021/12/23 02:53:28;;;;;;;35.77;23.20;;;-1.90;99.90;;;;;;5144311;27;20643;-54
2021/12/23 02:55:59;;;;;;;34.57;23.10;;;-1.90;99.90;;;;;;5147612;27;20226;-54
2021/12/23 02:58:28;;;;;;;38.53;25.43;;;-1.90;99.90;;;;;;5132123;27;20282;-52
2021/12/23 03:00:57;;;;;;;40.57;24.70;;;-1.90;99.90;;;;;;5132128;27;20624;-54
2021/12/23 03:03:26;;;;;;;38.27;24.50;;;-1.90;99.90;;;;;;5132085;28;20284;-54
2021/12/23 03:05:56;;;;;;;37.27;25.20;;;-1.80;99.90;;;;;;5131033;27;20203;-54
2021/12/23 03:08:29;;;;;;;41.23;25.00;;;-1.80;99.90;;;;;;5130159;27;20646;-54
2021/12/23 03:10:58;;;;;;;40.53;25.40;;;-1.80;99.90;;;;;;5131556;28;20266;-54
2021/12/23 03:13:27;;;;;;;37.67;24.87;;;-1.80;99.90;;;;;;5132059;27;20291;-52
2021/12/23 03:15:55;;;;;;;35.53;24.23;;;-1.70;99.90;;;;;;5131789;28;20224;-54
2021/12/23 03:18:24;;;;;;;37.37;25.50;;;-1.70;99.90;;;;;;5131662;28;20199;-54
2021/12/23 03:20:52;;;;;;;42.43;26.03;;;-1.70;99.90;;;;;;5131688;28;20206;-54
2021/12/23 03:23:20;;;;;;;37.40;24.70;;;-1.70;99.90;;;;;;5131654;28;20234;-55
2021/12/23 03:25:49;;;;;;;40.17;26.90;;;-1.80;99.90;;;;;;5132254;28;20238;-54
2021/12/23 03:28:18;;;;;;;39.43;24.97;;;-1.70;99.90;;;;;;5126761;28;20205;-53
2021/12/23 03:30:47;;;;;;;37.87;25.20;;;-1.70;99.90;;;;;;5136048;27;20215;-54
2021/12/23 03:33:15;;;;;;;42.13;26.07;;;-1.70;99.90;;;;;;5131461;28;20812;-54
2021/12/23 03:35:44;;;;;;;37.77;25.03;;;-1.60;99.90;;;;;;5132245;28;20211;-54
2021/12/23 03:38:12;;;;;;;38.50;24.63;;;-1.70;99.90;;;;;;5131747;28;20256;-54
2021/12/23 03:40:41;;;;;;;40.53;26.33;;;-1.60;99.90;;;;;;5131684;28;20199;-54
2021/12/23 03:43:11;;;;;;;39.03;26.10;;;-1.60;99.90;;;;;;5131425;28;20233;-54
2021/12/23 03:45:42;;;;;;;46.43;26.80;;;-1.60;99.90;;;;;;5131507;28;20222;-54
2021/12/23 03:48:10;;;;;;;39.73;25.33;;;-1.60;99.90;;;;;;5131901;28;20229;-54
2021/12/23 03:50:39;;;;;;;41.90;26.03;;;-1.60;99.90;;;;;;5130939;28;20254;-54
2021/12/23 03:53:07;;;;;;;39.70;26.70;;;-1.60;99.90;;;;;;5141401;27;20263;-54
2021/12/23 03:55:35;;;;;;;43.50;28.23;;;-1.60;99.90;;;;;;5142877;27;20203;-53
2021/12/23 03:58:04;;;;;;;40.30;26.93;;;-1.70;99.90;;;;;;5110487;28;20220;-54
2021/12/23 04:00:32;;;;;;;40.63;26.77;;;-1.70;99.90;;;;;;5110968;28;20238;-54
2021/12/23 04:03:02;;;;;;;38.13;26.20;;;-1.60;99.90;;;;;;5113721;27;20204;-54
2021/12/23 04:05:30;;;;;;;42.30;27.13;;;-1.60;99.90;;;;;;5131692;28;20210;-54
2021/12/23 04:07:58;;;;;;;42.87;29.33;;;-1.60;99.90;;;;;;5131193;28;20236;-54
2021/12/23 04:10:27;;;;;;;43.13;27.60;;;-1.60;99.90;;;;;;5131396;28;20252;-54
2021/12/23 04:12:55;;;;;;;42.03;25.27;;;-1.60;99.90;;;;;;5131140;27;20203;-53
2021/12/23 04:15:23;;;;;;;41.70;26.17;;;-1.60;99.90;;;;;;5131227;27;20219;-53
2021/12/23 04:17:51;;;;;;;46.63;28.37;;;-1.60;99.90;;;;;;5132776;27;20202;-54
2021/12/23 04:20:23;;;;;;;40.10;26.07;;;-1.60;99.90;;;;;;5134552;27;20678;-55
2021/12/23 04:22:53;;;;;;;44.10;27.47;;;-1.60;99.90;;;;;;5134643;27;20211;-54
2021/12/23 04:25:23;;;;;;;42.40;27.80;;;-1.60;99.90;;;;;;5134720;27;20226;-54
2021/12/23 04:27:54;;;;;;;42.97;27.53;;;-1.60;99.90;;;;;;5134938;27;20202;-54
2021/12/23 04:30:23;;;;;;;47.37;29.13;;;-1.60;99.90;;;;;;5155133;27;20255;-55
2021/12/23 04:32:52;;;;;;;42.17;27.53;;;-1.60;99.90;;;;;;5141726;27;20238;-54
2021/12/23 04:35:22;;;;;;;45.23;30.57;;;-1.70;99.90;;;;;;5134052;27;20640;-54
2021/12/23 04:37:51;;;;;;;44.40;29.00;;;-1.60;99.90;;;;;;5134647;27;20207;-54
2021/12/23 04:40:19;;;;;;;41.20;27.13;;;-1.70;99.90;;;;;;5134362;27;20203;-54
2021/12/23 04:42:47;;;;;;;42.47;27.40;;;-1.60;99.90;;;;;;5134035;27;20206;-54
2021/12/23 04:45:16;;;;;;;40.70;27.17;;;-1.60;99.90;;;;;;5134211;27;20234;-55
2021/12/23 04:47:44;;;;;;;47.40;28.83;;;-1.60;99.90;;;;;;5134651;27;20206;-54
2021/12/23 04:50:14;;;;;;;42.37;27.40;;;-1.60;99.90;;;;;;5134172;27;20199;-54
2021/12/23 04:52:45;;;;;;;43.83;27.73;;;-1.60;99.90;;;;;;5134156;27;20889;-54
2021/12/23 04:55:14;;;;;;;44.70;28.97;;;-1.60;99.90;;;;;;5134207;27;20741;-55
2021/12/23 04:57:43;;;;;;;46.47;29.00;;;-1.70;99.90;;;;;;5113475;28;20233;-53
2021/12/23 05:00:15;;;;;;;43.17;29.23;;;-1.60;99.90;;;;;;5124114;27;20252;-54
2021/12/23 05:02:43;;;;;;;45.27;29.47;;;-1.60;99.90;;;;;;5134645;27;20202;-54
2021/12/23 05:05:12;;;;;;;41.47;29.03;;;-1.60;99.90;;;;;;5134150;27;20222;-54
2021/12/23 05:07:42;;;;;;;44.23;29.10;;;-1.60;99.90;;;;;;5133960;27;20229;-54
2021/12/23 05:10:12;;;;;;;43.50;28.63;;;-1.60;99.90;;;;;;5133985;27;20203;-54
2021/12/23 05:12:44;;;;;;;42.67;27.53;;;-1.60;99.90;;;;;;5132334;27;20252;-54
2021/12/23 05:15:14;;;;;;;41.73;27.63;;;-1.60;99.90;;;;;;5133830;27;20223;-54
2021/12/23 05:17:43;;;;;;;44.87;29.23;;;-1.50;99.90;;;;;;5133667;27;20211;-53
2021/12/23 05:20:15;;;;;;;42.40;28.57;;;-1.50;99.90;;;;;;5133212;27;20203;-53
2021/12/23 05:22:44;;;;;;;45.80;30.13;;;-1.60;99.90;;;;;;5132673;27;20664;-54
2021/12/23 05:25:13;;;;;;;46.83;30.17;;;-1.70;99.90;;;;;;5134128;27;20223;-53
2021/12/23 05:27:41;;;;;;;46.20;28.40;;;-1.70;99.90;;;;;;5143554;27;20270;-54
2021/12/23 05:30:13;;;;;;;43.63;28.97;;;-1.70;99.90;;;;;;5153974;27;20205;-53
2021/12/23 05:32:42;;;;;;;41.87;26.67;;;-1.70;99.90;;;;;;5141411;27;20608;-53
2021/12/23 05:35:12;;;;;;;51.03;30.47;;;-1.70;99.90;;;;;;5133044;27;20226;-53
2021/12/23 05:37:40;;;;;;;42.97;27.97;;;-1.70;99.90;;;;;;5133359;27;20249;-53
2021/12/23 05:40:11;;;;;;;44.47;28.30;;;-1.60;99.90;;;;;;5133226;27;20230;-55
2021/12/23 05:42:40;;;;;;;46.13;28.33;;;-1.60;99.90;;;;;;5119220;27;20254;-54
2021/12/23 05:45:09;;;;;;;43.97;28.60;;;-1.60;99.90;;;;;;5128123;27;20794;-55
2021/12/23 05:47:37;;;;;;;44.70;28.70;;;-1.50;99.90;;;;;;5130447;27;20553;-54
2021/12/23 05:50:06;;;;;;;44.30;28.07;;;-1.50;99.90;;;;;;5118483;27;20217;-54
2021/12/23 05:52:35;;;;;;;45.33;28.53;;;-1.50;99.90;;;;;;5117329;27;20648;-56
2021/12/23 05:55:04;;;;;;;41.67;28.03;;;-1.40;99.90;;;;;;5132711;27;20225;-53
2021/12/23 05:57:34;;;;;;;45.23;29.83;;;-1.40;99.90;;;;;;5130872;27;20207;-52
2021/12/23 06:00:04;;;;;;;45.70;29.60;;;-1.40;99.90;;;;;;5133253;27;20342;-54
2021/12/23 06:02:32;;;;;;;43.73;29.23;;;-1.50;99.90;;;;;;5133052;27;20267;-54
2021/12/23 06:05:01;;;;;;;44.23;29.37;;;-1.50;99.90;;;;;;5133067;27;20227;-55
2021/12/23 06:07:29;;;;;;;42.90;28.97;;;-1.50;99.90;;;;;;5132946;27;20207;-55
2021/12/23 06:09:57;;;;;;;46.87;30.90;;;-1.40;99.90;;;;;;5132634;27;20206;-55
2021/12/23 06:12:26;;;;;;;42.07;27.80;;;-1.40;99.90;;;;;;5128660;27;20776;-55
2021/12/23 06:14:56;;;;;;;43.47;28.23;;;-1.40;99.90;;;;;;5117051;27;20224;-54
2021/12/23 06:17:24;;;;;;;47.40;30.43;;;-1.40;99.90;;;;;;5114629;27;20199;-53
2021/12/23 06:19:52;;;;;;;43.73;28.17;;;-1.40;99.90;;;;;;5122204;27;20199;-53
2021/12/23 06:22:20;;;;;;;44.00;29.20;;;-1.40;99.90;;;;;;5122702;27;20260;-55
2021/12/23 06:24:49;;;;;;;56.17;34.00;;;-1.30;99.90;;;;;;5119817;27;20272;-54
2021/12/23 06:27:18;;;;;;;63.00;38.60;;;-1.30;99.90;;;;;;5116350;27;20274;-53
2021/12/23 06:29:47;;;;;;;63.80;39.97;;;-1.30;99.90;;;;;;5112021;28;20688;-54
2021/12/23 06:32:16;;;;;;;56.63;35.10;;;-1.20;99.90;;;;;;5111635;27;20247;-54
2021/12/23 06:34:44;;;;;;;61.43;37.03;;;-1.20;99.90;;;;;;5117346;27;20248;-54
2021/12/23 06:37:13;;;;;;;53.43;34.03;;;-1.20;99.90;;;;;;5110047;28;20276;-55
2021/12/23 06:39:41;;;;;;;56.30;36.37;;;-1.20;99.90;;;;;;5110788;28;20205;-55
2021/12/23 06:42:09;;;;;;;55.80;37.50;;;-1.20;99.90;;;;;;5112801;27;20192;-53
2021/12/23 06:44:37;;;;;;;56.77;36.23;;;-1.20;99.90;;;;;;5113272;27;20250;-55
2021/12/23 06:47:05;;;;;;;50.17;34.03;;;-1.10;99.90;;;;;;5111118;28;20245;-54
2021/12/23 06:49:35;;;;;;;49.30;31.77;;;-1.20;99.90;;;;;;5115310;27;20245;-54
2021/12/23 06:52:03;;;;;;;45.47;30.53;;;-1.20;99.90;;;;;;5115341;27;20272;-54
2021/12/23 06:54:32;;;;;;;47.93;29.87;;;-1.20;99.90;;;;;;5111813;27;20219;-54
2021/12/23 06:57:00;;;;;;;47.93;30.57;;;-1.30;99.90;;;;;;5110740;28;20652;-55
2021/12/23 06:59:28;;;;;;;51.00;32.27;;;-1.30;99.90;;;;;;5113363;28;20234;-55
2021/12/23 07:01:56;;;;;;;49.03;32.13;;;-1.30;99.90;;;;;;5110902;28;20255;-54
2021/12/23 07:04:29;;;;;;;50.40;31.10;;;-1.30;99.90;;;;;;5112334;28;20238;-54
2021/12/23 07:07:08;;;;;;;53.27;32.37;;;-1.30;99.90;;;;;;5111456;28;20195;-55
2021/12/23 07:09:38;;;;;;;51.70;33.10;;;-1.30;99.90;;;;;;5113377;28;20202;-55
2021/12/23 07:12:09;;;;;;;51.37;33.37;;;-1.30;99.90;;;;;;5110819;28;20571;-55
2021/12/23 07:14:38;;;;;;;49.00;30.77;;;-1.30;99.90;;;;;;5121568;28;20288;-55
2021/12/23 07:17:07;;;;;;;47.53;30.57;;;-1.30;99.90;;;;;;5110868;28;20211;-55
2021/12/23 07:19:36;;;;;;;43.77;29.77;;;-1.30;99.90;;;;;;5111405;28;20207;-55
2021/12/23 07:22:06;;;;;;;53.47;33.27;;;-1.30;99.90;;;;;;5111248;28;20268;-54
2021/12/23 07:24:35;;;;;;;45.30;29.73;;;-1.30;99.90;;;;;;5122459;28;20223;-55
2021/12/23 07:27:03;;;;;;;50.30;31.53;;;-1.40;99.90;;;;;;5131517;28;20191;-54
2021/12/23 07:29:32;;;;;;;47.57;31.13;;;-1.40;99.90;;;;;;5131569;28;20698;-54
2021/12/23 07:32:02;;;;;;;48.70;31.30;;;-1.30;99.90;;;;;;5131300;28;20241;-55
2021/12/23 07:34:31;;;;;;;49.93;30.30;;;-1.30;99.90;;;;;;5131249;28;20223;-54
2021/12/23 07:36:59;;;;;;;50.90;31.80;;;-1.40;99.90;;;;;;5131546;28;20206;-54
2021/12/23 07:39:28;;;;;;;52.17;33.27;;;-1.30;99.90;;;;;;5131363;28;20252;-55
2021/12/23 07:42:15;;;;;;;55.93;34.03;;;-1.30;99.90;;;;;;5132014;28;20616;-53
2021/12/23 07:44:44;;;;;;;47.70;32.33;;;-1.40;99.90;;;;;;5131766;28;20571;-53
2021/12/23 07:47:13;;;;;;;49.47;34.50;;;-1.30;99.90;;;;;;5131819;28;20207;-54
2021/12/23 07:49:42;;;;;;;49.90;31.53;;;-1.20;99.90;;;;;;5128423;27;20702;-54
2021/12/23 07:52:10;;;;;;;50.13;33.10;;;-1.20;99.90;;;;;;5132936;27;20229;-54
2021/12/23 07:54:40;;;;;;;54.73;34.37;;;-1.20;99.90;;;;;;5128327;27;20223;-55
2021/12/23 07:57:08;;;;;;;53.67;34.03;;;-1.20;99.90;;;;;;5134460;27;20247;-55
2021/12/23 07:59:36;;;;;;;50.37;32.43;;;-1.20;99.90;;;;;;5134819;27;20628;-53
2021/12/23 08:02:05;;;;;;;46.97;32.07;;;-1.10;99.90;;;;;;5122581;27;20202;-54
2021/12/23 08:04:35;;;;;;;56.00;33.37;;;-1.10;99.90;;;;;;5122615;27;20227;-53
2021/12/23 08:07:04;;;;;;;51.07;32.90;;;-1.20;99.90;;;;;;5122287;27;20228;-54
2021/12/23 08:09:32;;;;;;;52.70;34.30;;;-1.20;99.90;;;;;;5130834;27;20687;-54
2021/12/23 08:12:05;;;;;;;54.40;33.87;;;-1.20;99.90;;;;;;5134768;27;20233;-55
2021/12/23 08:14:34;;;;;;;51.53;32.70;;;-1.20;99.90;;;;;;5134498;27;20299;-54
2021/12/23 08:17:22;;;;;;;54.93;33.90;;;-1.20;99.90;;;;;;5132982;27;20224;-55
2021/12/23 08:19:50;;;;;;;53.80;33.57;;;-1.20;99.90;;;;;;5133871;27;20698;-54
2021/12/23 08:22:18;;;;;;;55.03;34.00;;;-1.20;99.90;;;;;;5133518;27;20280;-54
2021/12/23 08:24:46;;;;;;;53.23;33.77;;;-1.20;99.90;;;;;;5134277;27;20227;-55
2021/12/23 08:27:16;;;;;;;51.53;33.73;;;-1.20;99.90;;;;;;5131428;27;20252;-54
2021/12/23 08:29:44;;;;;;;52.83;33.20;;;-1.10;99.90;;;;;;5134485;27;20207;-54
2021/12/23 08:32:12;;;;;;;50.90;33.03;;;-1.10;99.90;;;;;;5134113;27;20200;-54
2021/12/23 08:34:40;;;;;;;55.07;34.37;;;-1.10;99.90;;;;;;5133670;27;20230;-55
2021/12/23 08:37:11;;;;;;;53.80;35.20;;;-1.00;99.90;;;;;;5133648;27;20240;-55
2021/12/23 08:39:39;;;;;;;53.07;34.57;;;-1.10;99.90;;;;;;5134610;27;20248;-54
2021/12/23 08:42:08;;;;;;;58.87;36.47;;;-1.10;99.90;;;;;;5129761;27;20212;-55
2021/12/23 08:44:40;;;;;;;53.67;36.37;;;-1.10;99.90;;;;;;5132350;27;20220;-54
2021/12/23 08:47:09;;;;;;;58.03;36.53;;;-1.00;99.90;;;;;;5133876;27;20219;-53
2021/12/23 08:49:37;;;;;;;60.80;37.17;;;-1.10;99.90;;;;;;5133799;27;20260;-53
2021/12/23 08:52:07;;;;;;;62.27;38.80;;;-1.10;99.90;;;;;;5135613;27;20579;-54
2021/12/23 08:54:35;;;;;;;65.80;37.17;;;-1.20;99.90;;;;;;5127908;27;20234;-54
2021/12/23 08:57:04;;;;;;;56.77;35.73;;;-1.10;99.90;;;;;;5130696;27;20204;-54
2021/12/23 08:59:33;;;;;;;58.57;36.00;;;-1.10;99.90;;;;;;5130597;27;20211;-53
2021/12/23 09:02:05;;;;;;;57.20;35.87;;;-1.00;99.90;;;;;;5133181;27;20208;-54
2021/12/23 09:04:35;;;;;;;58.27;36.83;;;-1.00;99.90;;;;;;5132170;27;20711;-54
2021/12/23 09:07:04;;;;;;;70.83;40.33;;;-1.10;99.90;;;;;;5132793;27;20260;-54
2021/12/23 09:09:35;;;;;;;62.83;38.83;;;-1.10;99.90;;;;;;5133973;27;20272;-54
2021/12/23 09:12:08;;;;;;;63.90;38.60;;;-1.00;99.90;;;;;;5132735;27;20244;-54
2021/12/23 09:14:37;;;;;;;69.90;40.60;;;-0.90;99.90;;;;;;5128859;27;20772;-55
2021/12/23 09:17:10;;;;;;;58.73;35.77;;;-1.00;99.90;;;;;;5133442;27;20203;-53
2021/12/23 09:19:40;;;;;;;63.67;38.07;;;-1.00;99.90;;;;;;5133803;27;20239;-55
2021/12/23 09:22:10;;;;;;;62.77;37.93;;;-0.90;99.90;;;;;;5133523;27;20298;-54
2021/12/23 09:24:47;;;;;;;66.10;37.33;;;-0.80;99.90;;;;;;5132517;27;20782;-54
2021/12/23 09:27:26;;;;;;;67.87;40.80;;;-0.80;99.90;;;;;;5133014;27;20256;-56
2021/12/23 09:32:52;;;;;;;63.90;39.83;;;-0.80;99.90;;;;;;5131109;27;20207;-54
2021/12/23 09:35:22;;;;;;;72.50;43.20;;;-0.70;99.90;;;;;;5134401;27;20221;-55
2021/12/23 09:37:51;;;;;;;75.73;43.10;;;-0.80;99.90;;;;;;5134426;27;20275;-54
2021/12/23 09:40:23;;;;;;;70.80;41.77;;;-0.90;99.90;;;;;;5134431;27;21118;-55
2021/12/23 09:42:54;;;;;;;73.17;42.10;;;-0.80;99.90;;;;;;5132582;27;20226;-54
2021/12/23 09:45:23;;;;;;;70.30;40.17;;;-0.70;99.90;;;;;;5135987;27;20265;-53
2021/12/23 09:47:54;;;;;;;66.80;41.83;;;-0.70;99.90;;;;;;5130073;27;20252;-54
2021/12/23 09:50:25;;;;;;;74.33;42.77;;;-0.70;99.90;;;;;;5131113;27;20733;-55
2021/12/23 09:52:54;;;;;;;73.60;41.77;;;-0.70;99.90;;;;;;5137796;27;20285;-53
2021/12/23 09:55:25;;;;;;;69.87;40.33;;;-0.60;99.90;;;;;;5130385;27;20311;-54
2021/12/23 09:57:57;;;;;;;73.73;41.20;;;-0.70;99.90;;;;;;5134071;27;20564;-55
2021/12/23 10:00:28;;;;;;;71.30;41.83;;;-0.60;99.90;;;;;;5134549;27;20222;-56
2021/12/23 10:02:59;;;;;;;67.97;40.67;;;-0.70;99.90;;;;;;5133734;27;20199;-56
2021/12/23 10:05:30;;;;;;;76.77;44.27;;;-0.80;99.90;;;;;;5132022;27;20255;-55
2021/12/23 10:07:58;;;;;;;77.47;43.57;;;-0.70;99.90;;;;;;5133134;27;20200;-55
2021/12/23 10:10:33;;;;;;;83.47;45.90;;;-0.70;99.90;;;;;;5134749;27;20216;-54
2021/12/23 10:26:56;;;;;;;73.70;44.80;;;-0.70;99.90;;;;;;5127943;27;20261;-56
2021/12/23 10:30:25;;;;;;;75.57;44.33;;;-0.70;99.90;;;;;;5132162;27;20254;-54
2021/12/23 10:38:33;;;;;;;74.53;42.13;;;-0.70;99.90;;;;;;5123656;27;20216;-54
2021/12/23 10:41:08;;;;;;;80.83;46.50;;;-0.70;99.90;;;;;;5120469;27;20201;-54
2021/12/23 10:43:39;;;;;;;76.97;44.80;;;-0.70;99.90;;;;;;5131267;27;20288;-52
2021/12/23 10:46:10;;;;;;;80.17;44.93;;;-0.60;99.90;;;;;;5131841;27;20739;-54
2021/12/23 10:48:48;;;;;;;72.87;43.43;;;-0.60;99.90;;;;;;5128795;27;20212;-54
2021/12/23 10:51:19;;;;;;;74.03;43.60;;;-0.60;99.90;;;;;;5130687;27;20252;-55
2021/12/23 10:54:16;;;;;;;75.33;44.13;;;-0.50;99.90;;;;;;5131715;27;20231;-55
2021/12/23 10:59:30;;;;;;;82.13;47.13;;;-0.50;99.90;;;;;;5127465;27;20203;-54
2021/12/23 11:02:13;;;;;;;74.03;45.50;;;-0.40;99.90;;;;;;5130684;27;20207;-55
2021/12/23 11:05:04;;;;;;;75.47;44.53;;;-0.40;99.90;;;;;;5129781;27;20220;-55
2021/12/23 11:07:47;;;;;;;81.27;46.50;;;-0.30;99.90;;;;;;5130177;27;20213;-56
2021/12/23 11:10:21;;;;;;;79.00;45.43;;;-0.30;99.90;;;;;;5129890;28;20191;-53
2021/12/23 11:27:35;;;;;;;80.77;50.57;;;0.10;99.90;;;;;;5115919;27;20190;-53
2021/12/23 11:39:25;;;;;;;79.77;45.23;;;-0.10;99.90;;;;;;5073861;28;20255;-55
2021/12/23 11:42:02;;;;;;;77.30;45.53;;;-0.10;99.90;;;;;;5072911;28;20201;-55
2021/12/23 11:44:31;;;;;;;84.30;50.47;;;-0.10;99.90;;;;;;5104973;27;20216;-55
2021/12/23 11:47:06;;;;;;;76.43;45.37;;;-0.10;99.90;;;;;;5117305;27;20239;-54
2021/12/23 11:49:38;;;;;;;76.20;46.30;;;0.00;99.90;;;;;;5116976;27;20206;-55
2021/12/23 11:52:06;;;;;;;83.77;50.67;;;0.00;99.90;;;;;;5115375;27;20212;-56
2021/12/23 11:54:37;;;;;;;76.33;45.07;;;0.00;99.90;;;;;;5114271;27;20229;-55
2021/12/23 11:57:16;;;;;;;82.37;46.63;;;0.00;99.90;;;;;;5115714;27;20213;-54
2021/12/23 11:59:55;;;;;;;79.47;45.47;;;0.10;99.90;;;;;;5136239;27;20276;-53
2021/12/23 12:02:25;;;;;;;81.47;47.97;;;0.10;99.90;;;;;;5150841;27;20202;-54
2021/12/23 12:05:02;;;;;;;77.40;44.93;;;0.10;99.90;;;;;;5135043;27;20216;-53
2021/12/23 12:07:30;;;;;;;77.07;45.77;;;0.10;99.90;;;;;;5134599;27;20208;-56
2021/12/23 12:10:00;;;;;;;73.17;44.60;;;0.10;99.90;;;;;;5135528;27;20193;-56
2021/12/23 12:12:33;;;;;;;75.30;45.30;;;0.20;99.90;;;;;;5149909;27;20259;-54
2021/12/23 12:15:02;;;;;;;77.50;47.13;;;0.20;99.90;;;;;;5152755;27;20224;-55
2021/12/23 12:17:41;;;;;;;76.73;46.07;;;0.10;99.90;;;;;;5134405;27;20671;-54
2021/12/23 12:20:35;;;;;;;71.37;43.87;;;0.10;99.90;;;;;;5124851;27;20200;-54
2021/12/23 12:23:08;;;;;;;72.40;44.40;;;0.20;99.90;;;;;;5130754;27;20711;-54
2021/12/23 12:25:49;;;;;;;75.27;44.43;;;0.20;99.90;;;;;;5134308;27;20693;-55
2021/12/23 12:28:23;;;;;;;74.37;44.63;;;0.30;99.90;;;;;;5136178;27;20585;-54
2021/12/23 12:30:54;;;;;;;76.53;47.40;;;0.20;99.90;;;;;;5131895;27;20207;-55
2021/12/23 12:33:38;;;;;;;74.77;44.47;;;0.30;99.90;;;;;;5136335;27;20208;-55
2021/12/23 12:36:09;;;;;;;74.70;43.43;;;0.30;99.90;;;;;;5137082;27;20234;-55
2021/12/23 12:38:39;;;;;;;75.60;43.93;;;0.40;99.90;;;;;;5132627;27;21450;-55
2021/12/23 12:41:10;;;;;;;75.53;45.60;;;0.40;99.90;;;;;;5133136;27;20625;-56
2021/12/23 12:43:57;;;;;;;74.70;43.67;;;0.30;99.90;;;;;;5127869;27;20364;-55
2021/12/23 12:46:57;;;;;;;74.40;43.30;;;0.30;99.90;;;;;;5131083;27;20215;-55
2021/12/23 12:49:28;;;;;;;70.70;41.80;;;0.30;99.90;;;;;;5128958;27;20292;-55
2021/12/23 12:52:07;;;;;;;65.97;40.60;;;0.30;99.90;;;;;;5133308;27;20203;-54
2021/12/23 12:54:41;;;;;;;70.07;42.80;;;0.40;99.90;;;;;;5135034;27;20230;-54
2021/12/23 12:57:11;;;;;;;75.03;44.43;;;0.50;99.90;;;;;;5133734;27;20209;-56
2021/12/23 12:59:44;;;;;;;75.33;44.30;;;0.50;99.90;;;;;;5130187;27;20207;-54
2021/12/23 13:02:23;;;;;;;72.70;43.03;;;0.50;99.90;;;;;;5132238;27;20679;-54
2021/12/23 13:04:57;;;;;;;73.00;42.00;;;0.50;99.90;;;;;;5126102;27;20969;-54
2021/12/23 13:07:29;;;;;;;72.30;43.93;;;0.60;99.90;;;;;;5132687;27;20212;-54
2021/12/23 13:10:02;;;;;;;71.00;42.93;;;0.60;99.90;;;;;;5133098;27;20285;-55
2021/12/23 13:12:33;;;;;;;68.13;42.63;;;0.70;99.90;;;;;;5133099;27;20210;-55
2021/12/23 13:15:18;;;;;;;73.63;43.60;;;0.70;99.90;;;;;;5133485;27;20835;-54
2021/12/23 13:17:55;;;;;;;80.13;49.00;;;0.70;99.90;;;;;;5133216;27;20425;-56
2021/12/23 13:20:47;;;;;;;69.17;44.73;;;0.80;99.90;;;;;;5129749;27;20206;-55
2021/12/23 13:23:23;;;;;;;73.27;43.90;;;0.80;99.90;;;;;;5131035;27;20244;-55
2021/12/23 13:25:55;;;;;;;76.57;45.63;;;0.70;99.90;;;;;;5130762;27;20618;-56
2021/12/23 13:28:29;;;;;;;75.73;45.33;;;0.50;99.90;;;;;;5132890;27;20205;-54
2021/12/23 13:31:00;;;;;;;70.53;42.50;;;0.60;99.90;;;;;;5132775;27;20269;-55
2021/12/23 13:33:28;;;;;;;76.77;45.97;;;0.70;99.90;;;;;;5132421;27;20229;-55
2021/12/23 13:35:58;;;;;;;72.93;43.90;;;0.70;99.90;;;;;;5132712;27;20254;-53
2021/12/23 13:38:32;;;;;;;77.20;45.53;;;0.70;99.90;;;;;;5132623;27;20680;-54